createdAt,value
2022-10-20T00:03:08.331Z,1012.083
2022-10-20T00:23:08.058Z,1012
2022-10-20T00:43:07.830Z,1011.715
2022-10-20T01:03:08.644Z,1011.251
2022-10-20T01:23:07.391Z,1010.966
2022-10-20T01:43:07.183Z,1010.555
2022-10-20T02:03:08.922Z,1010.211
2022-10-20T02:23:07.619Z,1010.122
2022-10-20T02:43:07.496Z,1009.963
2022-10-20T03:03:08.327Z,1009.658
2022-10-20T03:23:08.087Z,1009.301
2022-10-20T03:43:07.886Z,1009.117
2022-10-20T04:03:08.779Z,1009.12
2022-10-20T04:23:07.450Z,1008.74
2022-10-20T04:43:07.657Z,1008.425
2022-10-20T05:03:08.603Z,1007.948
2022-10-20T05:23:07.449Z,1007.626
2022-10-20T05:43:07.354Z,1007.37
2022-10-20T06:03:08.269Z,1007.043
2022-10-20T06:23:08.076Z,1006.826
2022-10-20T06:43:07.863Z,1006.871
2022-10-20T07:03:08.849Z,1006.664
2022-10-20T07:23:07.746Z,1006.646
2022-10-20T07:43:07.652Z,1006.532
2022-10-20T08:03:08.511Z,1006.506
2022-10-20T08:23:07.226Z,1006.228
2022-10-20T08:43:08.022Z,1006.09
2022-10-20T09:03:08.950Z,1005.9
2022-10-20T09:23:42.649Z,1005.638
2022-10-20T09:43:07.737Z,1005.258
2022-10-20T10:03:08.651Z,1005.535
2022-10-20T10:23:07.381Z,1005.4
2022-10-20T10:43:07.202Z,1005.245
2022-10-20T11:03:09.053Z,1005.038
2022-10-20T11:23:07.881Z,1005.068
2022-10-20T11:43:11.576Z,1004.816
2022-10-20T12:03:08.409Z,1004.674
2022-10-20T12:23:07.364Z,1004.607
2022-10-20T12:43:07.209Z,1004.293
2022-10-20T13:03:09.016Z,1004.374
2022-10-20T13:23:07.819Z,1004.679
2022-10-20T13:43:07.755Z,1004.749
2022-10-20T14:03:08.618Z,1004.722
2022-10-20T14:23:07.411Z,1004.699
2022-10-20T14:43:07.348Z,1004.445
2022-10-20T15:03:08.756Z,1004.404
2022-10-20T15:23:07.724Z,1004.056
2022-10-20T15:43:07.731Z,1003.892
2022-10-20T16:03:08.553Z,1003.654
2022-10-20T16:23:07.367Z,1003.716
2022-10-20T16:43:07.504Z,1003.64
2022-10-20T17:03:08.535Z,1003.48
2022-10-20T17:23:07.332Z,1003.21
2022-10-20T17:43:07.494Z,1003.051
2022-10-20T18:03:08.281Z,1003.078
2022-10-20T18:23:08.037Z,1003.043
2022-10-20T18:43:07.995Z,1003.105
2022-10-20T19:03:08.922Z,1003.075
2022-10-20T19:23:07.675Z,1002.929
2022-10-20T19:43:07.748Z,1002.706
2022-10-20T20:03:08.682Z,1002.314
2022-10-20T20:23:07.403Z,1002.173
2022-10-20T20:43:07.490Z,1002.229
2022-10-20T21:03:08.337Z,1002.062
2022-10-20T21:23:07.294Z,1002.041
2022-10-20T21:43:07.270Z,1002.019
2022-10-20T22:03:08.318Z,1001.845
2022-10-20T22:23:07.961Z,1002.05
2022-10-20T22:43:07.683Z,1001.809
2022-10-20T23:03:08.451Z,1001.69
2022-10-20T23:23:07.237Z,1001.568
2022-10-20T23:43:08.165Z,1001.264
